Main page
METAR-TAF:

METAR-TAF

Airports :

London Southend Airport

London-Southend, England

latitude: 51-34N, longitude: 000-42E, elevation: 15 m

Current weather observation

The report was made 26 minutes ago, at 20:20 UTC
Wind 4 kt from the West
Temperature 5°C
Humidity 81%
Pressure 1037 hPa
Visibility 10 km or more
Overcast at a height of 2200 ft

METAR: EGMC 222020Z 27004KT 9999 OVC022 05/02 Q1037

Time: 20:46 (20:46 UTC)

Forecast

The report was made 51 minutes ago, at 19:55 UTC
Forecast valid from 22 at 21 UTC to 23 at 06 UTC
Wind 5 kt from the West
Visibility 10 km or more
Broken clouds at a height of 2000 ft
Probability 30% :
Temporary
from 22 at 21 UTC to 23 at 06 UTC
Broken clouds at a height of 1400 ft

TAF: EGMC 221955Z 2221/2306 28005KT 9999 BKN020 PROB30 TEMPO 2221/2306 BKN014

Weather observations and forecasts of more than 4000 airports (METAR and TAF reports).

The available stations are represented by yellow and red dots on the map.

Hover mouse over dot to see the name of the station.

Then click to see weather observations and forecasts.

To change the map : click on the green buttons with a black cross to zoom in, on the green button with a dash to zoom out, or on the green arrows for adjacent maps.


METAR-TAF: